Time;durP1;ratioP1;P1;durP2;ratioP2;P2;SDS_P1;SDS_P2;PMS_P1;PMS_P2;Temp;Humidity;BMP_temperature;BMP_pressure;BME280_temperature;BME280_humidity;BME280_pressure;Samples;Min_cycle;Max_cycle;Signal;HPM_P1;HPM_P2
2022/03/30 00:00:32;;;;;;;14.55;7.10;;;;;;;14.55;44.92;97666.41;4963487;28;20076;-56
2022/03/30 00:03:17;;;;;;;16.63;6.68;;;;;;;14.69;44.84;97658.91;4991164;28;20054;-53
2022/03/30 00:06:04;;;;;;;16.35;6.95;;;;;;;14.74;43.95;97665.34;4991427;28;20504;-52
2022/03/30 00:08:48;;;;;;;14.55;7.25;;;;;;;14.61;44.06;97665.78;4991539;28;20469;-56
2022/03/30 00:11:33;;;;;;;12.38;6.82;;;;;;;14.49;44.66;97670.47;4991554;28;20051;-54
2022/03/30 00:14:17;;;;;;;15.10;7.70;;;;;;;14.31;44.63;97669.75;4990709;28;20050;-56
2022/03/30 00:17:03;;;;;;;12.80;6.65;;;;;;;14.49;44.82;97674.94;4993368;28;20043;-55
2022/03/30 00:19:48;;;;;;;11.93;6.25;;;;;;;14.75;44.48;97677.50;4995434;28;20053;-57
2022/03/30 00:22:32;;;;;;;14.00;6.25;;;;;;;15.20;44.39;97674.72;4994174;28;20048;-54
2022/03/30 00:25:20;;;;;;;10.90;5.28;;;;;;;15.80;42.72;97677.25;4995337;28;20057;-54
2022/03/30 00:28:05;;;;;;;11.75;5.32;;;;;;;16.10;42.35;97677.59;4980499;28;20485;-58
2022/03/30 00:30:49;;;;;;;9.73;4.93;;;;;;;16.63;41.09;97673.63;4980418;28;20042;-56
2022/03/30 00:33:34;;;;;;;12.82;5.63;;;;;;;16.30;41.31;97671.94;4980475;28;20049;-56
2022/03/30 00:36:19;;;;;;;9.50;5.07;;;;;;;15.34;43.47;97680.38;4994915;28;20070;-56
2022/03/30 00:39:04;;;;;;;10.75;6.03;;;;;;;15.73;41.62;97676.28;4980309;28;20499;-56
2022/03/30 00:41:48;;;;;;;11.18;4.55;;;;;;;16.35;42.45;97669.59;4980292;28;20057;-57
2022/03/30 00:44:33;;;;;;;14.88;8.65;;;;;;;15.69;41.49;97667.84;4966519;28;20049;-55
2022/03/30 00:47:24;;;;;;;12.73;5.97;;;;;;;15.35;42.96;97672.28;4995018;28;20100;-56
2022/03/30 00:50:10;;;;;;;16.40;7.77;;;;;;;14.85;44.04;97661.59;4994579;28;20050;-56
2022/03/30 00:52:56;;;;;;;12.35;5.95;;;;;;;15.11;44.33;97663.31;4994687;28;20293;-56
2022/03/30 00:55:41;;;;;;;10.20;5.03;;;;;;;15.61;43.91;97655.47;4980224;28;20485;-54
2022/03/30 00:58:27;;;;;;;12.80;6.65;;;;;;;14.93;44.46;97667.91;4980296;28;20112;-56
2022/03/30 01:01:11;;;;;;;13.50;6.95;;;;;;;15.47;43.81;97646.38;4994516;28;20432;-54
2022/03/30 01:03:56;;;;;;;11.88;6.70;;;;;;;16.56;41.35;97638.31;4994855;28;20054;-56
2022/03/30 01:06:41;;;;;;;16.02;6.45;;;;;;;15.11;44.23;97639.59;4994453;28;20065;-55
2022/03/30 01:09:26;;;;;;;22.95;9.90;;;;;;;14.58;44.39;97634.47;4979785;28;20050;-55
2022/03/30 01:12:12;;;;;;;17.55;9.20;;;;;;;14.58;44.52;97644.19;4975478;28;20054;-59
2022/03/30 01:14:59;;;;;;;15.65;7.30;;;;;;;14.61;45.39;97643.84;4979538;28;20072;-56
2022/03/30 01:17:44;;;;;;;19.42;8.48;;;;;;;14.58;44.86;97641.53;4994105;28;20034;-55
2022/03/30 01:20:29;;;;;;;19.13;8.27;;;;;;;14.59;44.67;97645.84;4979233;28;20490;-56
2022/03/30 01:23:13;;;;;;;23.50;10.25;;;;;;;13.62;46.73;97648.41;4979461;28;20038;-57
2022/03/30 01:25:58;;;;;;;24.75;10.50;;;;;;;12.39;50.24;97644.28;4994256;28;20047;-55
2022/03/30 01:28:43;;;;;;;17.95;8.38;;;;;;;12.57;50.66;97655.69;4994363;28;20057;-55
2022/03/30 01:34:32;;;;;;;14.82;6.93;;;;;;;13.81;47.60;97651.81;4994348;28;20485;-57
2022/03/30 01:37:16;;;;;;;17.20;8.77;;;;;;;13.86;47.67;97649.56;4979635;28;20045;-56
2022/03/30 01:40:04;;;;;;;16.85;8.95;;;;;;;12.90;48.81;97654.41;4979656;28;20046;-58
2022/03/30 01:42:49;;;;;;;15.98;8.50;;;;;;;12.43;50.74;97654.38;4979626;28;20062;-55
2022/03/30 01:45:34;;;;;;;16.08;6.65;;;;;;;12.91;51.04;97649.00;4979596;28;20042;-55
2022/03/30 01:48:19;;;;;;;14.50;7.88;;;;;;;13.05;49.63;97647.69;4979095;28;20039;-57
2022/03/30 01:51:04;;;;;;;18.38;9.55;;;;;;;11.81;53.07;97644.28;4994696;28;20129;-58
2022/03/30 01:53:48;;;;;;;18.27;8.23;;;;;;;12.17;52.79;97646.31;4993660;28;20104;-57
2022/03/30 01:56:33;;;;;;;16.98;7.75;;;;;;;12.37;52.21;97638.38;4979003;28;20046;-54
2022/03/30 01:59:19;;;;;;;18.73;9.05;;;;;;;12.05;52.76;97649.06;4993765;28;20062;-56
2022/03/30 02:02:04;;;;;;;16.65;8.98;;;;;;;11.78;54.14;97639.31;4992348;28;20125;-58
2022/03/30 02:04:48;;;;;;;17.40;8.63;;;;;;;11.56;55.11;97639.50;4993490;28;20046;-59
2022/03/30 02:07:34;;;;;;;16.48;8.23;;;;;;;11.37;56.10;97631.63;4964985;28;20043;-54
2022/03/30 02:10:19;;;;;;;16.40;8.30;;;;;;;11.76;55.42;97633.38;4992251;28;20050;-56
2022/03/30 02:13:05;;;;;;;19.73;8.88;;;;;;;11.32;55.97;97622.41;4993473;28;20104;-56
2022/03/30 02:15:50;;;;;;;19.73;8.52;;;;;;;10.82;59.00;97626.75;4978612;28;20410;-58
2022/03/30 02:18:35;;;;;;;16.77;8.50;;;;;;;11.52;56.24;97614.50;4992866;28;20053;-55
2022/03/30 02:21:20;;;;;;;14.27;7.88;;;;;;;11.92;55.79;97612.63;4993311;28;20043;-57
2022/03/30 02:24:06;;;;;;;16.15;8.18;;;;;;;12.42;53.88;97613.31;4993214;28;20493;-57
2022/03/30 02:26:52;;;;;;;16.08;7.70;;;;;;;12.24;54.33;97615.06;4993270;28;20049;-56
2022/03/30 02:29:37;;;;;;;13.43;6.72;;;;;;;13.08;52.40;97616.81;4978527;28;20046;-57
2022/03/30 02:32:23;;;;;;;18.88;8.55;;;;;;;13.27;51.66;97610.56;4993313;28;20449;-56
2022/03/30 02:35:08;;;;;;;16.90;9.25;;;;;;;13.33;50.54;97610.00;4978727;28;20210;-56
2022/03/30 02:37:55;;;;;;;16.27;7.60;;;;;;;12.82;51.74;97618.38;4992910;28;20478;-56
2022/03/30 02:40:40;;;;;;;17.45;9.18;;;;;;;12.57;52.38;97610.19;4992547;28;20046;-58
2022/03/30 02:43:24;;;;;;;17.85;8.25;;;;;;;12.38;53.98;97608.50;4993001;28;20490;-56
2022/03/30 02:46:09;;;;;;;16.45;9.00;;;;;;;12.49;53.07;97604.84;4992520;28;20046;-58
2022/03/30 02:48:54;;;;;;;14.05;7.32;;;;;;;12.47;53.33;97604.19;4978002;28;20039;-55
2022/03/30 02:51:39;;;;;;;14.27;7.30;;;;;;;12.48;53.90;97611.91;4977721;28;20054;-57
2022/03/30 02:54:24;;;;;;;16.08;8.70;;;;;;;12.48;52.98;97601.41;4964507;28;20050;-54
2022/03/30 02:57:09;;;;;;;12.85;7.40;;;;;;;12.57;53.93;97604.94;4992624;28;20453;-54
2022/03/30 02:59:54;;;;;;;14.40;7.03;;;;;;;12.68;53.56;97604.75;4973779;28;20105;-55
2022/03/30 03:02:39;;;;;;;15.60;8.93;;;;;;;12.43;53.76;97603.66;4991639;28;20137;-55
2022/03/30 03:05:27;;;;;;;17.33;8.23;;;;;;;12.69;53.18;97600.31;4977502;28;20064;-56
2022/03/30 03:08:12;;;;;;;19.23;9.70;;;;;;;12.67;52.91;97592.59;4991959;28;20112;-53
2022/03/30 03:10:57;;;;;;;15.43;7.78;;;;;;;12.46;53.86;97590.22;4991179;28;20053;-54
2022/03/30 03:13:42;;;;;;;16.30;8.02;;;;;;;12.38;54.63;97592.75;4992278;28;20050;-56
2022/03/30 03:16:27;;;;;;;18.60;9.05;;;;;;;12.73;52.80;97595.59;4975001;28;20042;-55
2022/03/30 03:19:11;;;;;;;17.38;9.15;;;;;;;12.06;54.60;97589.53;4975729;28;20047;-57
2022/03/30 03:21:56;;;;;;;16.85;9.20;;;;;;;12.34;54.09;97592.19;4990513;28;20049;-54
2022/03/30 03:24:41;;;;;;;11.63;6.45;;;;;;;12.52;55.36;97591.41;4991359;28;20061;-55
2022/03/30 03:27:25;;;;;;;13.85;6.25;;;;;;;13.36;52.73;97588.63;4990984;28;20117;-53
2022/03/30 03:30:10;;;;;;;15.75;6.82;;;;;;;13.34;51.80;97593.22;4990480;28;20410;-55
2022/03/30 03:32:56;;;;;;;16.67;8.15;;;;;;;12.96;52.93;97598.63;4958047;28;20035;-56
2022/03/30 03:35:41;;;;;;;16.30;8.35;;;;;;;13.05;52.52;97594.28;4991162;28;20520;-56
2022/03/30 03:38:26;;;;;;;21.60;10.23;;;;;;;12.10;54.88;97595.34;4991621;28;20057;-54
2022/03/30 03:41:11;;;;;;;19.73;9.48;;;;;;;11.59;57.04;97593.78;4992011;28;20057;-57
2022/03/30 03:43:56;;;;;;;13.75;6.68;;;;;;;11.99;57.13;97591.06;4991905;28;20047;-55
2022/03/30 03:46:40;;;;;;;14.75;6.70;;;;;;;11.91;56.39;97592.59;4991906;28;20046;-57
2022/03/30 03:49:25;;;;;;;19.20;9.10;;;;;;;11.69;56.75;97591.97;4977481;28;20046;-56
2022/03/30 03:52:10;;;;;;;17.55;9.27;;;;;;;11.60;57.40;97582.34;4990588;28;20058;-55
2022/03/30 03:54:55;;;;;;;13.38;6.78;;;;;;;11.87;57.71;97577.28;4976685;28;20117;-56
2022/03/30 03:57:40;;;;;;;16.70;8.88;;;;;;;12.19;55.74;97584.00;4990844;28;20043;-56
2022/03/30 04:00:25;;;;;;;16.30;8.02;;;;;;;12.00;56.77;97582.22;4989831;28;20132;-56
2022/03/30 04:03:10;;;;;;;15.70;8.88;;;;;;;11.87;56.36;97586.00;4975474;28;20050;-56
2022/03/30 04:05:55;;;;;;;16.58;8.23;;;;;;;11.48;58.37;97584.28;4990986;28;20050;-52
2022/03/30 04:08:39;;;;;;;23.55;9.80;;;;;;;11.37;57.88;97587.06;4990566;28;20046;-55
2022/03/30 04:11:24;;;;;;;10.63;6.38;;;;;;;11.23;59.84;97586.50;4990872;28;20442;-53
2022/03/30 04:14:08;;;;;;;15.27;6.95;;;;;;;12.00;60.35;97598.81;4991358;28;20061;-55
2022/03/30 04:16:53;;;;;;;13.73;7.72;;;;;;;12.97;55.86;97596.81;4976638;28;20050;-56
2022/03/30 04:19:38;;;;;;;15.38;8.45;;;;;;;12.68;57.05;97598.69;4991344;28;20050;-55
2022/03/30 04:22:23;;;;;;;17.27;6.78;;;;;;;12.71;56.28;97594.94;4991381;28;20054;-53
2022/03/30 04:25:08;;;;;;;15.90;8.48;;;;;;;12.46;57.24;97595.47;4962621;28;20038;-58
2022/03/30 04:27:53;;;;;;;19.42;9.65;;;;;;;12.44;56.97;97597.41;4976948;28;20125;-56
2022/03/30 04:30:38;;;;;;;18.63;9.05;;;;;;;11.90;58.45;97595.38;4977023;28;20054;-54
2022/03/30 04:33:23;;;;;;;16.13;8.93;;;;;;;11.17;60.63;97589.66;4991191;28;20411;-57
2022/03/30 04:36:08;;;;;;;22.25;10.30;;;;;;;10.93;61.94;97599.59;4991318;28;20065;-54
2022/03/30 04:38:53;;;;;;;18.08;10.05;;;;;;;10.98;62.17;97588.72;4976638;28;20093;-56
2022/03/30 04:41:38;;;;;;;15.98;8.52;;;;;;;11.08;61.95;97591.34;4973613;28;20101;-55
2022/03/30 04:44:25;;;;;;;18.88;10.55;;;;;;;10.32;62.76;97589.09;4991222;28;20061;-55
2022/03/30 04:47:10;;;;;;;22.15;10.82;;;;;;;9.26;67.56;97584.78;4960689;28;20182;-56
2022/03/30 04:49:55;;;;;;;19.25;11.35;;;;;;;9.05;69.19;97585.59;4991296;28;20057;-57
2022/03/30 04:52:41;;;;;;;22.02;10.25;;;;;;;9.84;69.15;97588.72;4976701;28;20061;-54
2022/03/30 04:55:26;;;;;;;19.95;9.55;;;;;;;10.88;64.54;97585.25;4976426;28;20042;-57
2022/03/30 04:58:11;;;;;;;21.95;8.40;;;;;;;11.46;62.67;97579.19;4990967;28;20046;-56
2022/03/30 05:00:56;;;;;;;13.65;7.88;;;;;;;11.60;61.62;97579.72;4962720;28;20101;-58
2022/03/30 05:03:40;;;;;;;15.70;8.55;;;;;;;12.03;58.61;97579.31;4979283;28;20054;-55
2022/03/30 05:06:25;;;;;;;19.27;7.25;;;;;;;12.36;61.80;97579.75;4994502;28;20058;-58
2022/03/30 05:09:12;;;;;;;15.10;7.38;;;;;;;12.65;58.38;97581.41;4995004;28;20050;-53
2022/03/30 05:11:57;;;;;;;21.75;8.93;;;;;;;13.40;56.04;97582.09;4995165;28;20097;-56
2022/03/30 05:14:42;;;;;;;19.88;7.40;;;;;;;13.00;59.29;97588.66;4995180;28;20055;-54
2022/03/30 05:17:27;;;;;;;14.93;8.50;;;;;;;12.63;58.83;97588.59;4994450;28;20042;-57
2022/03/30 05:20:16;;;;;;;13.40;6.78;;;;;;;12.74;57.82;97587.56;4994033;28;20057;-55
2022/03/30 05:23:01;;;;;;;14.75;7.35;;;;;;;12.92;57.88;97594.66;4994250;28;20066;-55
2022/03/30 05:25:46;;;;;;;17.27;8.52;;;;;;;12.88;56.41;97595.91;4994300;28;20425;-55
2022/03/30 05:28:31;;;;;;;18.45;7.82;;;;;;;12.83;58.10;97591.09;4993868;28;20093;-58
2022/03/30 05:31:16;;;;;;;19.13;8.70;;;;;;;13.03;56.61;97591.81;4994125;28;20050;-55
2022/03/30 05:34:00;;;;;;;17.67;8.95;;;;;;;12.63;57.72;97593.84;4994128;28;20049;-58
2022/03/30 05:36:45;;;;;;;15.82;7.88;;;;;;;12.34;58.68;97597.44;4994230;28;20049;-56
2022/03/30 05:39:31;;;;;;;14.98;7.50;;;;;;;12.01;60.73;97600.44;4995436;28;20050;-55
2022/03/30 05:42:16;;;;;;;17.70;8.07;;;;;;;12.74;58.00;97603.34;4979752;28;20054;-56
2022/03/30 05:45:02;;;;;;;22.35;9.45;;;;;;;12.44;57.88;97598.25;4994735;28;20049;-56
2022/03/30 05:47:46;;;;;;;16.67;9.18;;;;;;;12.37;57.56;97591.09;4994131;28;20066;-56
2022/03/30 05:50:31;;;;;;;18.23;8.88;;;;;;;12.62;58.42;97592.19;4993871;28;20058;-56
2022/03/30 05:53:17;;;;;;;16.50;8.43;;;;;;;12.32;59.91;97584.47;4993878;28;20049;-59
2022/03/30 05:56:02;;;;;;;16.27;8.43;;;;;;;12.45;58.51;97583.31;4993897;28;20100;-54
2022/03/30 05:58:46;;;;;;;19.13;9.38;;;;;;;12.92;57.16;97582.34;4978970;28;20094;-54
2022/03/30 06:01:31;;;;;;;19.58;9.20;;;;;;;12.69;57.34;97582.78;4992266;28;20072;-58
2022/03/30 06:04:16;;;;;;;15.90;6.68;;;;;;;12.93;58.69;97591.03;4993314;28;20053;-58
2022/03/30 06:07:01;;;;;;;19.00;9.15;;;;;;;13.26;56.54;97585.25;4993506;28;20061;-56
2022/03/30 06:09:46;;;;;;;17.77;9.55;;;;;;;12.88;55.56;97578.34;4993451;28;20108;-54
2022/03/30 06:12:31;;;;;;;21.60;10.05;;;;;;;12.40;57.63;97585.56;4993287;28;20461;-56
2022/03/30 06:15:15;;;;;;;21.75;10.43;;;;;;;12.39;57.42;97589.97;4992238;28;20386;-57
2022/03/30 06:18:00;;;;;;;21.00;10.43;;;;;;;12.34;58.04;97586.13;4993356;28;20043;-58
2022/03/30 06:20:45;;;;;;;21.23;10.52;;;;;;;12.12;58.71;97589.00;4993330;28;20052;-56
2022/03/30 06:23:30;;;;;;;22.48;10.32;;;;;;;11.91;60.02;97586.53;4993229;28;20418;-56
2022/03/30 06:26:16;;;;;;;18.02;9.35;;;;;;;12.81;56.93;97580.75;4993098;28;20053;-59
2022/03/30 06:29:01;;;;;;;19.58;10.05;;;;;;;13.21;56.25;97593.59;4993053;28;20122;-54
2022/03/30 06:31:45;;;;;;;23.42;11.10;;;;;;;13.29;55.36;97595.47;4992854;28;20049;-56
2022/03/30 06:34:30;;;;;;;21.65;10.13;;;;;;;13.62;54.83;97592.31;4978273;28;20457;-55
2022/03/30 06:37:15;;;;;;;21.50;10.18;;;;;;;13.28;54.86;97592.03;4964540;28;20498;-58
2022/03/30 06:40:00;;;;;;;21.27;10.27;;;;;;;13.09;55.92;97592.19;4975465;28;20569;-58
2022/03/30 06:42:45;;;;;;;28.15;11.45;;;;;;;12.74;56.86;97589.38;4992920;28;20050;-57
2022/03/30 06:45:29;;;;;;;22.17;10.55;;;;;;;13.02;56.39;97586.69;4992946;28;20120;-56
2022/03/30 06:48:14;;;;;;;14.70;7.10;;;;;;;14.99;52.56;97582.88;4992751;28;20049;-54
2022/03/30 06:50:59;;;;;;;13.45;6.70;;;;;;;15.86;49.85;97589.44;4962048;28;20065;-51
2022/03/30 06:53:43;;;;;;;14.70;6.85;;;;;;;16.90;46.63;97594.03;4995541;28;20048;-49
2022/03/30 06:56:28;;;;;;;19.02;8.23;;;;;;;17.62;44.65;97599.97;4977993;28;20046;-54
2022/03/30 06:59:13;;;;;;;16.20;8.82;;;;;;;18.32;42.22;97601.59;4992194;28;20104;-52
2022/03/30 07:01:58;;;;;;;119.22;23.20;;;;;;;19.05;40.36;97606.13;4992127;28;20054;-55
2022/03/30 07:05:04;;;;;;;141.93;25.33;;;;;;;18.87;40.15;97616.34;4992223;28;20148;-56
2022/03/30 07:10:52;;;;;;;69.10;16.35;;;;;;;18.29;41.44;97618.72;4992297;28;20104;-53
2022/03/30 07:13:37;;;;;;;129.70;24.02;;;;;;;17.70;42.89;97618.44;4991968;28;20606;-54
2022/03/30 07:16:23;;;;;;;121.55;21.25;;;;;;;17.68;42.51;97612.50;4977475;28;20498;-53
2022/03/30 07:19:08;;;;;;;125.43;23.73;;;;;;;17.49;43.43;97614.63;4992289;28;20045;-56
2022/03/30 07:21:53;;;;;;;99.03;20.70;;;;;;;18.25;41.63;97604.16;4964407;28;20137;-59
2022/03/30 07:24:38;;;;;;;93.15;19.25;;;;;;;18.68;40.89;97607.97;4977440;28;20073;-59
2022/03/30 07:27:23;;;;;;;109.93;23.33;;;;;;;19.52;38.92;97616.38;4963860;28;20047;-59
2022/03/30 07:30:08;;;;;;;62.97;16.40;;;;;;;19.16;39.74;97610.13;4977095;28;20409;-59
2022/03/30 07:32:55;;;;;;;113.20;22.00;;;;;;;19.53;38.84;97623.34;4991980;28;20468;-60
2022/03/30 07:35:46;;;;;;;59.22;14.13;;;;;;;18.45;40.44;97620.34;4991513;28;20069;-59
2022/03/30 07:38:31;;;;;;;144.50;21.67;;;;;;;18.41;41.83;97616.41;4991681;28;20339;-59
2022/03/30 07:41:16;;;;;;;120.70;21.75;;;;;;;18.47;41.53;97620.97;4991777;28;20405;-60
2022/03/30 07:44:01;;;;;;;60.13;13.77;;;;;;;18.73;40.95;97620.66;4977095;28;20047;-59
2022/03/30 07:46:48;;;;;;;89.35;16.80;;;;;;;18.70;41.43;97617.38;4991439;28;20049;-58
2022/03/30 07:49:33;;;;;;;58.90;12.85;;;;;;;19.15;40.66;97619.13;4992192;28;20129;-59
2022/03/30 07:52:18;;;;;;;42.88;12.20;;;;;;;19.25;41.12;97610.00;4990349;28;20073;-59
2022/03/30 07:55:06;;;;;;;23.13;9.80;;;;;;;19.77;40.01;97604.50;4991642;28;20050;-58
2022/03/30 07:57:51;;;;;;;33.70;9.27;;;;;;;19.75;39.26;97611.88;4976704;28;20081;-59
2022/03/30 08:00:36;;;;;;;26.48;8.55;;;;;;;19.15;40.73;97607.66;4963504;28;20046;-60
2022/03/30 08:03:20;;;;;;;17.23;8.80;;;;;;;19.51;41.87;97605.94;4976875;28;20054;-63
2022/03/30 08:06:05;;;;;;;17.38;9.35;;;;;;;17.71;41.01;97608.66;4991243;28;20074;-60
2022/03/30 08:08:50;;;;;;;23.50;8.40;;;;;;;18.30;41.85;97607.09;4991721;28;20081;-59
2022/03/30 08:11:34;;;;;;;15.27;9.05;;;;;;;18.28;40.47;97609.09;4991433;28;20042;-61
2022/03/30 08:14:19;;;;;;;21.85;9.32;;;;;;;18.19;42.29;97607.56;4990510;28;20050;-60
2022/03/30 08:17:05;;;;;;;18.90;10.50;;;;;;;17.00;43.40;97613.16;4990533;28;20051;-63
2022/03/30 08:19:50;;;;;;;16.98;8.55;;;;;;;16.51;44.90;97615.03;4990502;28;20046;-60
2022/03/30 08:22:34;;;;;;;15.57;8.48;;;;;;;17.26;43.51;97614.66;4975234;28;20049;-60
2022/03/30 08:25:19;;;;;;;19.40;9.88;;;;;;;16.75;43.71;97618.56;4949673;28;20098;-62
2022/03/30 08:28:04;;;;;;;19.48;10.68;;;;;;;14.96;47.74;97622.75;4991294;28;20042;-60
2022/03/30 08:30:49;;;;;;;13.68;8.32;;;;;;;16.38;47.11;97615.59;4990721;28;20070;-64
2022/03/30 08:33:34;;;;;;;17.40;7.03;;;;;;;16.44;48.98;97611.44;4991131;28;20051;-59
2022/03/30 08:36:20;;;;;;;13.55;8.40;;;;;;;16.46;44.94;97614.72;4990028;28;20409;-58
2022/03/30 08:39:11;;;;;;;15.75;9.73;;;;;;;15.35;46.31;97613.41;4978656;28;20042;-57
2022/03/30 08:41:55;;;;;;;15.05;9.43;;;;;;;16.00;45.44;97602.97;4995095;28;20061;-60
2022/03/30 08:44:41;;;;;;;19.58;10.60;;;;;;;15.07;46.87;97606.63;4992174;28;20065;-58
2022/03/30 08:47:26;;;;;;;18.05;9.68;;;;;;;15.82;45.92;97608.44;4959999;28;20074;-58
2022/03/30 08:50:10;;;;;;;15.57;8.45;;;;;;;16.48;49.92;97594.25;4963939;28;20556;-59
2022/03/30 08:53:02;;;;;;;16.77;10.40;;;;;;;16.86;43.83;97586.44;4986837;28;20146;-60
2022/03/30 08:55:47;;;;;;;21.98;10.90;;;;;;;15.34;47.14;97593.31;4993135;28;20054;-58
2022/03/30 08:58:31;;;;;;;18.10;11.35;;;;;;;15.22;47.41;97590.16;4979960;28;20470;-60
2022/03/30 09:01:16;;;;;;;21.35;10.52;;;;;;;15.98;49.19;97589.13;4979537;28;20482;-59
2022/03/30 09:04:04;;;;;;;28.63;12.20;;;;;;;15.39;47.48;97588.34;4990665;28;20050;-59
2022/03/30 09:06:57;;;;;;;22.95;11.48;;;;;;;15.77;48.29;97579.88;4991543;28;20492;-58
2022/03/30 09:09:42;;;;;;;17.35;11.10;;;;;;;16.53;45.38;97576.06;4976787;28;20491;-59
2022/03/30 09:12:26;;;;;;;17.98;10.90;;;;;;;17.44;43.72;97577.31;4979404;28;20104;-59
2022/03/30 09:15:13;;;;;;;18.35;11.15;;;;;;;17.06;42.41;97575.41;4994326;28;20051;-59
2022/03/30 09:18:00;;;;;;;18.83;11.52;;;;;;;16.91;41.22;97564.75;4977674;28;20122;-59
2022/03/30 09:20:47;;;;;;;19.00;11.65;;;;;;;15.78;43.99;97573.63;4994021;28;20042;-61
2022/03/30 09:23:32;;;;;;;14.23;9.07;;;;;;;15.88;48.00;97568.97;4990227;28;20111;-60
2022/03/30 09:26:17;;;;;;;18.02;10.52;;;;;;;15.76;43.84;97572.97;4991871;28;20046;-58
2022/03/30 09:29:04;;;;;;;13.23;9.60;;;;;;;15.93;43.97;97570.31;4993990;28;20093;-60
2022/03/30 09:31:50;;;;;;;18.45;12.60;;;;;;;15.82;43.83;97561.72;4990497;28;20559;-60
2022/03/30 09:34:47;;;;;;;16.88;10.40;;;;;;;15.87;44.80;97554.13;4981507;28;20050;-60
2022/03/30 09:37:31;;;;;;;15.90;10.55;;;;;;;15.24;45.12;97548.63;4993677;28;20050;-53
2022/03/30 09:40:16;;;;;;;21.15;8.93;;;;;;;17.41;44.67;97535.31;4985578;28;20458;-53
2022/03/30 09:43:15;;;;;;;16.40;9.75;;;;;;;16.93;43.93;97538.13;4993564;28;20069;-59
2022/03/30 09:46:03;;;;;;;15.48;10.07;;;;;;;15.91;42.68;97532.66;4978741;28;20070;-58
2022/03/30 09:48:55;;;;;;;13.60;8.68;;;;;;;15.42;43.79;97526.50;4993331;28;20058;-59
2022/03/30 09:51:39;;;;;;;13.50;8.13;;;;;;;15.64;42.94;97530.25;4992995;28;20100;-58
2022/03/30 09:54:43;;;;;;;12.95;7.53;;;;;;;16.94;43.16;97529.22;4982559;28;20046;-59
2022/03/30 09:57:37;;;;;;;16.33;8.93;;;;;;;16.29;44.17;97522.31;4973949;28;20525;-58
2022/03/30 10:00:22;;;;;;;15.20;8.60;;;;;;;15.79;42.86;97517.19;4973184;28;20043;-59
2022/03/30 10:03:07;;;;;;;14.52;8.40;;;;;;;15.59;43.51;97516.72;4974006;28;20491;-59
2022/03/30 10:05:52;;;;;;;13.10;7.65;;;;;;;16.35;41.12;97516.31;4973356;28;20388;-59
2022/03/30 10:08:39;;;;;;;14.80;8.65;;;;;;;15.79;42.32;97503.16;4981081;28;20042;-60
2022/03/30 10:11:27;;;;;;;12.73;8.15;;;;;;;14.94;43.99;97506.91;4992494;28;20046;-59
2022/03/30 10:14:12;;;;;;;14.27;8.75;;;;;;;15.33;43.56;97494.00;4992682;28;20061;-60
2022/03/30 10:16:57;;;;;;;13.57;7.35;;;;;;;16.20;42.55;97499.56;4991727;28;20401;-59
2022/03/30 10:19:44;;;;;;;13.43;7.45;;;;;;;16.00;42.79;97498.16;4993114;28;20143;-59
2022/03/30 10:22:46;;;;;;;14.27;8.15;;;;;;;15.98;42.95;97496.69;4977970;28;20054;-59
2022/03/30 10:25:37;;;;;;;14.70;8.35;;;;;;;15.68;42.64;97486.69;4992224;28;20050;-60
2022/03/30 10:28:30;;;;;;;11.33;7.60;;;;;;;15.99;42.79;97482.50;4977727;28;20053;-59
2022/03/30 10:31:20;;;;;;;14.00;6.47;;;;;;;16.09;43.04;97479.66;4992358;28;20325;-59
2022/03/30 10:34:25;;;;;;;13.85;6.30;;;;;;;17.35;40.21;97472.47;4992847;28;20096;-61
2022/03/30 10:37:10;;;;;;;13.68;6.82;;;;;;;16.55;41.06;97470.94;4992547;28;20108;-58
2022/03/30 10:40:17;;;;;;;10.45;6.60;;;;;;;16.57;41.35;97466.31;4992776;28;20046;-60
2022/03/30 10:43:04;;;;;;;11.52;6.95;;;;;;;16.09;42.19;97469.09;4977790;28;20124;-60
2022/03/30 10:45:58;;;;;;;12.98;7.13;;;;;;;16.11;41.50;97470.53;4992369;28;20043;-59
2022/03/30 10:48:42;;;;;;;10.82;7.28;;;;;;;16.22;41.34;97465.88;4992126;28;20049;-59
2022/03/30 10:51:27;;;;;;;11.90;7.13;;;;;;;15.72;42.44;97455.50;4974490;28;20059;-62
2022/03/30 10:54:29;;;;;;;14.63;7.40;;;;;;;16.16;41.38;97453.38;4992097;28;20443;-58
2022/03/30 10:57:44;;;;;;;11.45;7.30;;;;;;;15.42;42.60;97455.25;4991733;28;20038;-60
2022/03/30 11:00:37;;;;;;;13.88;6.35;;;;;;;16.19;41.46;97453.81;4976855;28;20157;-60
2022/03/30 11:03:26;;;;;;;16.25;7.55;;;;;;;16.30;40.10;97444.69;4963256;28;20382;-58
2022/03/30 11:06:10;;;;;;;15.45;5.63;;;;;;;16.40;40.91;97441.84;4991982;28;20522;-59
2022/03/30 11:08:57;;;;;;;11.68;6.50;;;;;;;16.77;39.70;97443.88;4991454;28;20054;-59
2022/03/30 11:11:45;;;;;;;14.15;6.88;;;;;;;16.34;40.64;97442.50;4991642;28;20402;-60
2022/03/30 11:14:36;;;;;;;10.18;5.47;;;;;;;16.59;40.55;97437.91;4990905;28;20105;-61
2022/03/30 11:17:32;;;;;;;11.55;5.85;;;;;;;17.11;39.27;97432.88;4990423;28;20382;-60
2022/03/30 11:20:19;;;;;;;12.20;6.22;;;;;;;16.17;41.09;97420.66;4990374;28;20046;-61
2022/03/30 11:23:20;;;;;;;14.25;6.25;;;;;;;16.19;40.66;97419.47;4976204;28;20062;-60
2022/03/30 11:26:06;;;;;;;8.70;4.70;;;;;;;16.30;41.87;97414.81;4992229;28;20054;-59
2022/03/30 11:28:51;;;;;;;12.50;6.30;;;;;;;15.86;41.61;97423.09;4977565;28;20074;-59
2022/03/30 11:31:35;;;;;;;14.40;5.50;;;;;;;16.06;40.88;97414.78;4990998;28;20043;-59
2022/03/30 11:34:32;;;;;;;12.60;6.07;;;;;;;16.39;40.11;97411.09;4976178;28;20050;-59
2022/03/30 11:37:18;;;;;;;11.40;5.43;;;;;;;16.92;39.91;97399.78;4990877;28;20088;-60
2022/03/30 11:40:17;;;;;;;8.10;4.47;;;;;;;16.82;40.17;97405.34;4990858;28;20077;-60
2022/03/30 11:43:02;;;;;;;11.80;6.10;;;;;;;16.59;39.14;97385.03;4991868;28;20445;-61
2022/03/30 11:45:47;;;;;;;9.68;5.68;;;;;;;17.07;38.01;97385.75;4991649;28;20070;-60
2022/03/30 11:48:35;;;;;;;11.20;5.90;;;;;;;16.91;38.54;97382.25;4976915;28;20084;-60
2022/03/30 11:51:27;;;;;;;11.27;5.95;;;;;;;16.42;39.72;97367.66;4977317;28;20057;-59
2022/03/30 11:54:18;;;;;;;17.85;7.00;;;;;;;16.05;40.90;97368.22;4963840;28;20047;-60
2022/03/30 11:57:03;;;;;;;12.40;6.85;;;;;;;15.57;41.89;97366.47;4991822;28;20117;-60
2022/03/30 12:00:08;;;;;;;10.63;5.85;;;;;;;16.04;40.71;97371.88;4991884;28;20105;-60
2022/03/30 12:02:59;;;;;;;10.38;5.63;;;;;;;16.23;39.67;97360.03;4964073;28;20058;-63
2022/03/30 12:05:43;;;;;;;10.57;4.95;;;;;;;16.74;38.98;97353.31;4991567;28;20056;-59
2022/03/30 12:08:39;;;;;;;18.48;5.45;;;;;;;17.03;38.54;97352.72;4991461;28;20042;-59
2022/03/30 12:11:25;;;;;;;10.50;4.95;;;;;;;16.85;39.00;97346.78;4991779;28;20048;-59
2022/03/30 12:14:11;;;;;;;11.52;5.97;;;;;;;15.93;40.28;97357.19;4995233;28;20158;-59
2022/03/30 12:16:57;;;;;;;12.65;6.68;;;;;;;15.92;40.50;97344.19;4995499;28;20120;-59
2022/03/30 12:19:49;;;;;;;15.82;6.18;;;;;;;16.03;40.40;97332.44;4995565;28;20042;-53
2022/03/30 12:22:35;;;;;;;12.57;6.47;;;;;;;16.45;39.39;97325.81;4995507;28;20105;-58
2022/03/30 12:25:20;;;;;;;10.73;4.93;;;;;;;17.03;39.92;97318.34;4994560;28;20105;-59
2022/03/30 12:28:06;;;;;;;9.38;4.55;;;;;;;17.06;38.58;97317.97;4994266;28;20038;-60
2022/03/30 12:30:50;;;;;;;8.93;5.10;;;;;;;16.82;39.05;97319.88;4963826;28;20508;-60
2022/03/30 12:33:46;;;;;;;10.95;5.50;;;;;;;16.45;40.27;97314.44;4993697;28;20069;-59
2022/03/30 12:36:40;;;;;;;9.13;5.47;;;;;;;16.27;41.06;97315.59;4991933;28;20109;-61
2022/03/30 12:39:29;;;;;;;10.38;5.15;;;;;;;16.43;41.25;97305.88;4978958;28;20066;-61
2022/03/30 12:42:26;;;;;;;13.52;6.53;;;;;;;16.37;41.37;97299.47;4965668;28;20336;-59
2022/03/30 12:45:14;;;;;;;11.73;6.40;;;;;;;16.28;41.67;97290.81;4991735;28;20050;-58
2022/03/30 12:48:01;;;;;;;9.13;5.68;;;;;;;16.48;41.00;97293.75;4992913;28;20355;-59
2022/03/30 12:50:46;;;;;;;12.05;6.10;;;;;;;16.54;41.09;97283.47;4979673;28;20445;-59
2022/03/30 12:53:33;;;;;;;11.98;5.13;;;;;;;16.62;42.01;97276.28;4994101;28;20054;-57
2022/03/30 12:56:20;;;;;;;11.05;5.45;;;;;;;16.25;42.43;97267.38;4979028;28;20050;-60
2022/03/30 12:59:05;;;;;;;10.90;6.82;;;;;;;16.02;42.60;97262.94;4993382;28;20096;-58